Terminal Aerodrome Forecast
Issued by NWS Louisville, KY

Home | Current Version | Previous Version | Text Only | Print | Product List | Glossary On
Versions: 1 2 3 4 5 6 7 8 9 10 11 12 13 14 15 16 17 18
000
FTUS43 KLMK 102300
TAFSDF
TAF
KSDF 102320Z 1100/1206 03009KT P6SM FEW070
     FM110200 VRB04KT P6SM FEW070=

USA.gov is the U.S. government's official web portal to all federal, state and local government web resources and services.